sensor_id;sensor_type;location;lat;lon;timestamp;P1;durP1;ratioP1;P2;durP2;ratioP2
14040;SDS011;7095;51.388;6.196;2023-04-03T00:01:25;12.37;;;7.00;;
14040;SDS011;7095;51.388;6.196;2023-04-03T00:03:53;14.23;;;6.73;;
14040;SDS011;7095;51.388;6.196;2023-04-03T00:06:22;10.27;;;7.13;;
14040;SDS011;7095;51.388;6.196;2023-04-03T00:08:51;11.23;;;7.47;;
14040;SDS011;7095;51.388;6.196;2023-04-03T00:11:21;12.97;;;6.83;;
14040;SDS011;7095;51.388;6.196;2023-04-03T00:13:50;17.13;;;7.00;;
14040;SDS011;7095;51.388;6.196;2023-04-03T00:16:19;12.20;;;7.00;;
14040;SDS011;7095;51.388;6.196;2023-04-03T00:18:47;10.67;;;7.17;;
14040;SDS011;7095;51.388;6.196;2023-04-03T00:21:16;15.60;;;8.03;;
14040;SDS011;7095;51.388;6.196;2023-04-03T00:23:44;13.43;;;8.00;;
14040;SDS011;7095;51.388;6.196;2023-04-03T00:26:13;16.33;;;8.13;;
14040;SDS011;7095;51.388;6.196;2023-04-03T00:28:43;10.60;;;7.23;;
14040;SDS011;7095;51.388;6.196;2023-04-03T00:31:13;13.33;;;6.77;;
14040;SDS011;7095;51.388;6.196;2023-04-03T00:33:42;15.37;;;7.53;;
14040;SDS011;7095;51.388;6.196;2023-04-03T00:36:11;12.03;;;7.83;;
14040;SDS011;7095;51.388;6.196;2023-04-03T00:38:40;11.03;;;6.53;;
14040;SDS011;7095;51.388;6.196;2023-04-03T00:41:09;15.60;;;8.17;;
14040;SDS011;7095;51.388;6.196;2023-04-03T00:43:37;10.83;;;7.73;;
14040;SDS011;7095;51.388;6.196;2023-04-03T00:46:08;11.27;;;7.43;;
14040;SDS011;7095;51.388;6.196;2023-04-03T00:48:37;11.67;;;7.13;;
14040;SDS011;7095;51.388;6.196;2023-04-03T00:51:09;10.97;;;7.30;;
14040;SDS011;7095;51.388;6.196;2023-04-03T00:53:42;12.60;;;8.03;;
14040;SDS011;7095;51.388;6.196;2023-04-03T00:56:15;11.57;;;7.90;;
14040;SDS011;7095;51.388;6.196;2023-04-03T00:58:48;14.00;;;7.90;;
14040;SDS011;7095;51.388;6.196;2023-04-03T01:01:23;15.37;;;8.50;;
14040;SDS011;7095;51.388;6.196;2023-04-03T01:03:54;13.37;;;8.30;;
14040;SDS011;7095;51.388;6.196;2023-04-03T01:06:24;13.90;;;7.93;;
14040;SDS011;7095;51.388;6.196;2023-04-03T01:09:03;14.10;;;7.30;;
14040;SDS011;7095;51.388;6.196;2023-04-03T01:11:32;13.27;;;8.73;;
14040;SDS011;7095;51.388;6.196;2023-04-03T01:14:01;13.10;;;7.83;;
14040;SDS011;7095;51.388;6.196;2023-04-03T01:16:31;10.80;;;7.87;;
14040;SDS011;7095;51.388;6.196;2023-04-03T01:19:00;12.33;;;8.23;;
14040;SDS011;7095;51.388;6.196;2023-04-03T01:24:29;14.13;;;7.50;;
14040;SDS011;7095;51.388;6.196;2023-04-03T01:27:04;11.70;;;6.53;;
14040;SDS011;7095;51.388;6.196;2023-04-03T01:29:35;13.23;;;7.60;;
14040;SDS011;7095;51.388;6.196;2023-04-03T01:32:06;12.23;;;7.83;;
14040;SDS011;7095;51.388;6.196;2023-04-03T01:34:35;10.50;;;8.67;;
14040;SDS011;7095;51.388;6.196;2023-04-03T01:37:05;10.37;;;7.40;;
14040;SDS011;7095;51.388;6.196;2023-04-03T01:39:33;11.93;;;7.73;;
14040;SDS011;7095;51.388;6.196;2023-04-03T01:42:02;17.37;;;9.77;;
14040;SDS011;7095;51.388;6.196;2023-04-03T01:44:35;13.57;;;7.97;;
14040;SDS011;7095;51.388;6.196;2023-04-03T01:47:06;16.77;;;8.63;;
14040;SDS011;7095;51.388;6.196;2023-04-03T01:49:36;16.63;;;8.97;;
14040;SDS011;7095;51.388;6.196;2023-04-03T01:52:05;10.20;;;7.93;;
14040;SDS011;7095;51.388;6.196;2023-04-03T01:54:33;18.23;;;8.07;;
14040;SDS011;7095;51.388;6.196;2023-04-03T01:57:02;11.20;;;8.27;;
14040;SDS011;7095;51.388;6.196;2023-04-03T01:59:31;11.50;;;8.50;;
14040;SDS011;7095;51.388;6.196;2023-04-03T02:02:00;16.57;;;9.30;;
14040;SDS011;7095;51.388;6.196;2023-04-03T02:04:30;14.70;;;8.87;;
14040;SDS011;7095;51.388;6.196;2023-04-03T02:06:59;12.90;;;8.67;;
14040;SDS011;7095;51.388;6.196;2023-04-03T02:09:27;13.00;;;8.90;;
14040;SDS011;7095;51.388;6.196;2023-04-03T02:11:55;14.73;;;8.80;;
14040;SDS011;7095;51.388;6.196;2023-04-03T02:14:24;13.90;;;8.70;;
14040;SDS011;7095;51.388;6.196;2023-04-03T02:16:54;12.17;;;7.83;;
14040;SDS011;7095;51.388;6.196;2023-04-03T02:19:22;11.83;;;8.23;;
14040;SDS011;7095;51.388;6.196;2023-04-03T02:21:52;9.93;;;7.77;;
14040;SDS011;7095;51.388;6.196;2023-04-03T02:24:21;10.93;;;7.87;;
14040;SDS011;7095;51.388;6.196;2023-04-03T02:26:49;12.47;;;9.37;;
14040;SDS011;7095;51.388;6.196;2023-04-03T02:29:18;15.50;;;9.80;;
14040;SDS011;7095;51.388;6.196;2023-04-03T02:31:47;15.37;;;9.33;;
14040;SDS011;7095;51.388;6.196;2023-04-03T02:34:15;15.17;;;9.47;;
14040;SDS011;7095;51.388;6.196;2023-04-03T02:36:45;15.13;;;9.23;;
14040;SDS011;7095;51.388;6.196;2023-04-03T02:39:16;16.40;;;8.47;;
14040;SDS011;7095;51.388;6.196;2023-04-03T02:41:45;12.60;;;9.00;;
14040;SDS011;7095;51.388;6.196;2023-04-03T02:44:18;13.20;;;8.00;;
14040;SDS011;7095;51.388;6.196;2023-04-03T02:46:47;12.37;;;8.63;;
14040;SDS011;7095;51.388;6.196;2023-04-03T02:49:16;13.00;;;8.07;;
14040;SDS011;7095;51.388;6.196;2023-04-03T02:51:45;11.60;;;7.00;;
14040;SDS011;7095;51.388;6.196;2023-04-03T02:54:14;15.70;;;8.03;;
14040;SDS011;7095;51.388;6.196;2023-04-03T02:56:49;14.10;;;8.47;;
14040;SDS011;7095;51.388;6.196;2023-04-03T02:59:17;12.77;;;7.20;;
14040;SDS011;7095;51.388;6.196;2023-04-03T03:01:47;13.27;;;8.53;;
14040;SDS011;7095;51.388;6.196;2023-04-03T03:04:15;14.80;;;7.00;;
14040;SDS011;7095;51.388;6.196;2023-04-03T03:06:43;16.90;;;7.53;;
14040;SDS011;7095;51.388;6.196;2023-04-03T03:09:13;11.07;;;7.30;;
14040;SDS011;7095;51.388;6.196;2023-04-03T03:11:42;11.63;;;7.53;;
14040;SDS011;7095;51.388;6.196;2023-04-03T03:14:11;12.50;;;7.07;;
14040;SDS011;7095;51.388;6.196;2023-04-03T03:16:40;9.73;;;6.83;;
14040;SDS011;7095;51.388;6.196;2023-04-03T03:19:08;13.37;;;6.20;;
14040;SDS011;7095;51.388;6.196;2023-04-03T03:21:37;12.53;;;7.23;;
14040;SDS011;7095;51.388;6.196;2023-04-03T03:24:06;12.13;;;6.80;;
14040;SDS011;7095;51.388;6.196;2023-04-03T03:26:34;11.33;;;6.13;;
14040;SDS011;7095;51.388;6.196;2023-04-03T03:29:03;10.70;;;5.80;;
14040;SDS011;7095;51.388;6.196;2023-04-03T03:31:33;8.63;;;5.53;;
14040;SDS011;7095;51.388;6.196;2023-04-03T03:34:02;10.43;;;5.57;;
14040;SDS011;7095;51.388;6.196;2023-04-03T03:36:30;8.03;;;5.27;;
14040;SDS011;7095;51.388;6.196;2023-04-03T03:39:00;13.57;;;5.40;;
14040;SDS011;7095;51.388;6.196;2023-04-03T03:41:28;12.47;;;6.53;;
14040;SDS011;7095;51.388;6.196;2023-04-03T03:43:57;11.23;;;6.17;;
14040;SDS011;7095;51.388;6.196;2023-04-03T03:46:28;9.10;;;4.83;;
14040;SDS011;7095;51.388;6.196;2023-04-03T03:48:58;13.87;;;5.23;;
14040;SDS011;7095;51.388;6.196;2023-04-03T03:51:27;9.97;;;5.50;;
14040;SDS011;7095;51.388;6.196;2023-04-03T03:53:57;12.90;;;5.00;;
14040;SDS011;7095;51.388;6.196;2023-04-03T03:56:25;16.77;;;4.97;;
14040;SDS011;7095;51.388;6.196;2023-04-03T03:58:54;12.07;;;4.27;;
14040;SDS011;7095;51.388;6.196;2023-04-03T04:01:23;12.03;;;5.00;;
14040;SDS011;7095;51.388;6.196;2023-04-03T04:03:52;11.27;;;4.43;;
14040;SDS011;7095;51.388;6.196;2023-04-03T04:06:27;9.17;;;4.60;;
14040;SDS011;7095;51.388;6.196;2023-04-03T04:08:59;9.17;;;4.23;;
14040;SDS011;7095;51.388;6.196;2023-04-03T04:11:29;12.10;;;4.43;;
14040;SDS011;7095;51.388;6.196;2023-04-03T04:13:59;11.27;;;5.03;;
14040;SDS011;7095;51.388;6.196;2023-04-03T04:16:29;12.53;;;5.33;;
14040;SDS011;7095;51.388;6.196;2023-04-03T04:19:03;7.60;;;4.23;;
14040;SDS011;7095;51.388;6.196;2023-04-03T04:21:36;9.13;;;4.20;;
14040;SDS011;7095;51.388;6.196;2023-04-03T04:24:07;7.53;;;4.27;;
14040;SDS011;7095;51.388;6.196;2023-04-03T04:26:36;7.17;;;4.20;;
14040;SDS011;7095;51.388;6.196;2023-04-03T04:29:06;10.53;;;4.50;;
14040;SDS011;7095;51.388;6.196;2023-04-03T04:31:36;10.73;;;4.33;;
14040;SDS011;7095;51.388;6.196;2023-04-03T04:34:05;13.93;;;4.47;;
14040;SDS011;7095;51.388;6.196;2023-04-03T04:36:36;8.00;;;4.13;;
14040;SDS011;7095;51.388;6.196;2023-04-03T04:39:06;10.73;;;4.37;;
14040;SDS011;7095;51.388;6.196;2023-04-03T04:41:35;7.60;;;3.23;;
14040;SDS011;7095;51.388;6.196;2023-04-03T04:44:04;13.73;;;4.50;;
14040;SDS011;7095;51.388;6.196;2023-04-03T04:46:34;7.97;;;4.07;;
14040;SDS011;7095;51.388;6.196;2023-04-03T04:49:04;10.70;;;4.10;;
14040;SDS011;7095;51.388;6.196;2023-04-03T04:51:33;6.77;;;3.50;;
14040;SDS011;7095;51.388;6.196;2023-04-03T04:54:20;7.00;;;3.33;;
14040;SDS011;7095;51.388;6.196;2023-04-03T04:56:49;12.03;;;4.47;;
14040;SDS011;7095;51.388;6.196;2023-04-03T04:59:17;14.57;;;4.83;;
14040;SDS011;7095;51.388;6.196;2023-04-03T05:01:48;12.63;;;3.90;;
14040;SDS011;7095;51.388;6.196;2023-04-03T05:04:17;11.13;;;4.23;;
14040;SDS011;7095;51.388;6.196;2023-04-03T05:06:50;14.13;;;4.20;;
14040;SDS011;7095;51.388;6.196;2023-04-03T05:09:24;8.63;;;3.50;;
14040;SDS011;7095;51.388;6.196;2023-04-03T05:11:53;10.70;;;3.50;;
14040;SDS011;7095;51.388;6.196;2023-04-03T05:14:26;7.53;;;3.70;;
14040;SDS011;7095;51.388;6.196;2023-04-03T05:16:59;7.60;;;3.70;;
14040;SDS011;7095;51.388;6.196;2023-04-03T05:19:30;10.03;;;3.13;;
14040;SDS011;7095;51.388;6.196;2023-04-03T05:22:00;13.87;;;3.33;;
14040;SDS011;7095;51.388;6.196;2023-04-03T05:24:30;8.77;;;3.30;;
14040;SDS011;7095;51.388;6.196;2023-04-03T05:26:59;10.03;;;3.63;;
14040;SDS011;7095;51.388;6.196;2023-04-03T05:29:29;12.40;;;3.60;;
14040;SDS011;7095;51.388;6.196;2023-04-03T05:31:59;6.20;;;3.40;;
14040;SDS011;7095;51.388;6.196;2023-04-03T05:34:28;7.27;;;3.20;;
14040;SDS011;7095;51.388;6.196;2023-04-03T05:36:57;5.77;;;3.03;;
14040;SDS011;7095;51.388;6.196;2023-04-03T05:39:27;8.63;;;2.87;;
14040;SDS011;7095;51.388;6.196;2023-04-03T05:41:57;12.43;;;4.40;;
14040;SDS011;7095;51.388;6.196;2023-04-03T05:44:26;7.53;;;3.60;;
14040;SDS011;7095;51.388;6.196;2023-04-03T05:46:55;5.47;;;3.27;;
14040;SDS011;7095;51.388;6.196;2023-04-03T05:49:24;11.10;;;4.17;;
14040;SDS011;7095;51.388;6.196;2023-04-03T05:51:52;9.13;;;3.70;;
14040;SDS011;7095;51.388;6.196;2023-04-03T05:54:24;9.47;;;2.97;;
14040;SDS011;7095;51.388;6.196;2023-04-03T05:57:12;8.13;;;3.30;;
14040;SDS011;7095;51.388;6.196;2023-04-03T05:59:41;12.40;;;3.10;;
14040;SDS011;7095;51.388;6.196;2023-04-03T06:02:11;11.00;;;4.07;;
14040;SDS011;7095;51.388;6.196;2023-04-03T06:04:40;9.23;;;4.27;;
14040;SDS011;7095;51.388;6.196;2023-04-03T06:07:10;10.10;;;3.80;;
14040;SDS011;7095;51.388;6.196;2023-04-03T06:09:42;8.30;;;3.37;;
14040;SDS011;7095;51.388;6.196;2023-04-03T06:12:12;6.20;;;3.33;;
14040;SDS011;7095;51.388;6.196;2023-04-03T06:14:41;9.57;;;3.77;;
14040;SDS011;7095;51.388;6.196;2023-04-03T06:17:10;9.90;;;3.87;;
14040;SDS011;7095;51.388;6.196;2023-04-03T06:19:39;6.83;;;3.67;;
14040;SDS011;7095;51.388;6.196;2023-04-03T06:22:07;6.00;;;3.17;;
14040;SDS011;7095;51.388;6.196;2023-04-03T06:24:36;10.67;;;3.63;;
14040;SDS011;7095;51.388;6.196;2023-04-03T06:27:04;8.00;;;3.77;;
14040;SDS011;7095;51.388;6.196;2023-04-03T06:29:34;11.57;;;3.50;;
14040;SDS011;7095;51.388;6.196;2023-04-03T06:32:04;10.17;;;3.90;;
14040;SDS011;7095;51.388;6.196;2023-04-03T06:34:32;9.27;;;3.60;;
14040;SDS011;7095;51.388;6.196;2023-04-03T06:37:02;12.70;;;4.17;;
14040;SDS011;7095;51.388;6.196;2023-04-03T06:39:30;10.97;;;3.57;;
14040;SDS011;7095;51.388;6.196;2023-04-03T06:41:59;7.10;;;3.03;;
14040;SDS011;7095;51.388;6.196;2023-04-03T06:44:36;11.73;;;3.33;;
14040;SDS011;7095;51.388;6.196;2023-04-03T06:47:05;6.67;;;2.77;;
14040;SDS011;7095;51.388;6.196;2023-04-03T06:49:35;9.37;;;3.73;;
14040;SDS011;7095;51.388;6.196;2023-04-03T06:52:05;11.03;;;3.47;;
14040;SDS011;7095;51.388;6.196;2023-04-03T06:54:36;7.23;;;3.67;;
14040;SDS011;7095;51.388;6.196;2023-04-03T06:57:04;9.00;;;2.97;;
14040;SDS011;7095;51.388;6.196;2023-04-03T06:59:34;11.17;;;3.37;;
14040;SDS011;7095;51.388;6.196;2023-04-03T07:02:04;16.33;;;3.90;;
14040;SDS011;7095;51.388;6.196;2023-04-03T07:04:33;9.20;;;3.30;;
14040;SDS011;7095;51.388;6.196;2023-04-03T07:07:03;5.73;;;3.00;;
14040;SDS011;7095;51.388;6.196;2023-04-03T07:09:31;14.50;;;3.20;;
14040;SDS011;7095;51.388;6.196;2023-04-03T07:12:00;6.47;;;2.97;;
14040;SDS011;7095;51.388;6.196;2023-04-03T07:14:28;12.47;;;4.17;;
14040;SDS011;7095;51.388;6.196;2023-04-03T07:16:57;13.73;;;4.10;;
14040;SDS011;7095;51.388;6.196;2023-04-03T07:19:26;10.60;;;3.73;;
14040;SDS011;7095;51.388;6.196;2023-04-03T07:21:55;13.43;;;3.67;;
14040;SDS011;7095;51.388;6.196;2023-04-03T07:24:24;11.27;;;3.40;;
14040;SDS011;7095;51.388;6.196;2023-04-03T07:26:52;10.80;;;3.80;;
14040;SDS011;7095;51.388;6.196;2023-04-03T07:29:21;10.43;;;4.00;;
14040;SDS011;7095;51.388;6.196;2023-04-03T07:31:49;6.93;;;3.13;;
14040;SDS011;7095;51.388;6.196;2023-04-03T07:34:18;9.87;;;3.90;;
14040;SDS011;7095;51.388;6.196;2023-04-03T07:36:48;8.90;;;4.10;;
14040;SDS011;7095;51.388;6.196;2023-04-03T07:39:17;11.07;;;3.63;;
14040;SDS011;7095;51.388;6.196;2023-04-03T07:41:46;12.37;;;5.03;;
14040;SDS011;7095;51.388;6.196;2023-04-03T07:44:14;9.73;;;4.53;;
14040;SDS011;7095;51.388;6.196;2023-04-03T07:46:42;9.87;;;4.57;;
14040;SDS011;7095;51.388;6.196;2023-04-03T07:49:11;16.03;;;5.20;;
14040;SDS011;7095;51.388;6.196;2023-04-03T07:51:39;11.13;;;3.73;;
14040;SDS011;7095;51.388;6.196;2023-04-03T07:54:09;9.50;;;3.77;;
14040;SDS011;7095;51.388;6.196;2023-04-03T07:56:38;10.83;;;3.30;;
14040;SDS011;7095;51.388;6.196;2023-04-03T07:59:06;9.30;;;3.90;;
14040;SDS011;7095;51.388;6.196;2023-04-03T08:01:35;11.80;;;3.37;;
14040;SDS011;7095;51.388;6.196;2023-04-03T08:04:03;15.53;;;4.07;;
14040;SDS011;7095;51.388;6.196;2023-04-03T08:06:33;14.13;;;3.20;;
14040;SDS011;7095;51.388;6.196;2023-04-03T08:09:14;9.10;;;3.27;;
14040;SDS011;7095;51.388;6.196;2023-04-03T08:11:43;11.47;;;3.83;;
14040;SDS011;7095;51.388;6.196;2023-04-03T08:14:12;11.07;;;4.30;;
14040;SDS011;7095;51.388;6.196;2023-04-03T08:16:45;17.83;;;3.23;;
14040;SDS011;7095;51.388;6.196;2023-04-03T08:19:15;7.83;;;3.03;;
14040;SDS011;7095;51.388;6.196;2023-04-03T08:21:52;14.60;;;3.17;;
14040;SDS011;7095;51.388;6.196;2023-04-03T08:24:25;8.17;;;4.40;;
14040;SDS011;7095;51.388;6.196;2023-04-03T08:26:54;7.80;;;3.00;;
14040;SDS011;7095;51.388;6.196;2023-04-03T08:29:23;6.30;;;3.10;;
14040;SDS011;7095;51.388;6.196;2023-04-03T08:31:52;9.53;;;3.50;;
14040;SDS011;7095;51.388;6.196;2023-04-03T08:34:21;10.13;;;3.67;;
14040;SDS011;7095;51.388;6.196;2023-04-03T08:36:50;7.33;;;2.63;;
14040;SDS011;7095;51.388;6.196;2023-04-03T08:39:18;11.13;;;2.83;;
14040;SDS011;7095;51.388;6.196;2023-04-03T08:41:48;8.20;;;2.53;;
14040;SDS011;7095;51.388;6.196;2023-04-03T08:44:20;6.90;;;2.57;;
14040;SDS011;7095;51.388;6.196;2023-04-03T08:47:04;7.73;;;3.10;;
14040;SDS011;7095;51.388;6.196;2023-04-03T08:49:43;7.33;;;3.37;;
14040;SDS011;7095;51.388;6.196;2023-04-03T08:52:19;5.40;;;2.57;;
14040;SDS011;7095;51.388;6.196;2023-04-03T08:54:51;6.70;;;2.70;;
14040;SDS011;7095;51.388;6.196;2023-04-03T08:57:27;17.00;;;3.60;;
14040;SDS011;7095;51.388;6.196;2023-04-03T08:59:59;7.67;;;2.80;;
14040;SDS011;7095;51.388;6.196;2023-04-03T09:02:31;8.30;;;2.83;;
14040;SDS011;7095;51.388;6.196;2023-04-03T09:05:05;12.37;;;2.87;;
14040;SDS011;7095;51.388;6.196;2023-04-03T09:07:42;10.23;;;2.90;;
14040;SDS011;7095;51.388;6.196;2023-04-03T09:10:16;7.30;;;2.70;;
14040;SDS011;7095;51.388;6.196;2023-04-03T09:12:55;5.50;;;2.47;;
14040;SDS011;7095;51.388;6.196;2023-04-03T09:15:29;10.87;;;3.10;;
14040;SDS011;7095;51.388;6.196;2023-04-03T09:18:06;7.57;;;2.33;;
14040;SDS011;7095;51.388;6.196;2023-04-03T09:20:45;5.73;;;2.07;;
14040;SDS011;7095;51.388;6.196;2023-04-03T09:23:21;5.43;;;2.50;;
14040;SDS011;7095;51.388;6.196;2023-04-03T09:25:56;24.43;;;3.67;;
14040;SDS011;7095;51.388;6.196;2023-04-03T09:28:34;7.07;;;2.10;;
14040;SDS011;7095;51.388;6.196;2023-04-03T09:31:19;6.63;;;2.67;;
14040;SDS011;7095;51.388;6.196;2023-04-03T09:33:50;4.47;;;1.97;;
14040;SDS011;7095;51.388;6.196;2023-04-03T09:36:37;4.23;;;1.80;;
14040;SDS011;7095;51.388;6.196;2023-04-03T09:39:07;5.30;;;2.10;;
14040;SDS011;7095;51.388;6.196;2023-04-03T09:41:39;5.17;;;1.63;;
14040;SDS011;7095;51.388;6.196;2023-04-03T09:44:22;4.97;;;1.73;;
14040;SDS011;7095;51.388;6.196;2023-04-03T09:46:52;6.33;;;2.30;;
14040;SDS011;7095;51.388;6.196;2023-04-03T09:49:20;3.03;;;1.70;;
14040;SDS011;7095;51.388;6.196;2023-04-03T09:51:49;6.60;;;2.13;;
14040;SDS011;7095;51.388;6.196;2023-04-03T09:54:31;2.47;;;1.53;;
14040;SDS011;7095;51.388;6.196;2023-04-03T09:57:06;3.37;;;1.83;;
14040;SDS011;7095;51.388;6.196;2023-04-03T09:59:41;4.47;;;1.43;;
14040;SDS011;7095;51.388;6.196;2023-04-03T10:02:21;6.93;;;1.37;;
14040;SDS011;7095;51.388;6.196;2023-04-03T10:04:58;8.17;;;1.67;;
14040;SDS011;7095;51.388;6.196;2023-04-03T10:07:36;3.30;;;1.77;;
14040;SDS011;7095;51.388;6.196;2023-04-03T10:10:17;4.27;;;1.70;;
14040;SDS011;7095;51.388;6.196;2023-04-03T10:12:54;3.57;;;1.70;;
14040;SDS011;7095;51.388;6.196;2023-04-03T10:15:35;3.87;;;1.40;;
14040;SDS011;7095;51.388;6.196;2023-04-03T10:18:13;5.90;;;1.63;;
14040;SDS011;7095;51.388;6.196;2023-04-03T10:20:57;2.77;;;1.20;;
14040;SDS011;7095;51.388;6.196;2023-04-03T10:23:36;3.13;;;1.37;;
14040;SDS011;7095;51.388;6.196;2023-04-03T10:26:11;3.33;;;1.20;;
14040;SDS011;7095;51.388;6.196;2023-04-03T10:28:44;1.97;;;1.13;;
14040;SDS011;7095;51.388;6.196;2023-04-03T10:31:23;2.00;;;1.30;;
14040;SDS011;7095;51.388;6.196;2023-04-03T10:33:59;7.00;;;1.63;;
14040;SDS011;7095;51.388;6.196;2023-04-03T10:36:35;4.07;;;1.47;;
14040;SDS011;7095;51.388;6.196;2023-04-03T10:39:12;5.27;;;1.90;;
14040;SDS011;7095;51.388;6.196;2023-04-03T10:41:57;4.67;;;1.30;;
14040;SDS011;7095;51.388;6.196;2023-04-03T10:44:47;4.97;;;1.20;;
14040;SDS011;7095;51.388;6.196;2023-04-03T10:47:29;3.97;;;1.33;;
14040;SDS011;7095;51.388;6.196;2023-04-03T10:50:10;4.63;;;1.73;;
14040;SDS011;7095;51.388;6.196;2023-04-03T10:52:55;3.37;;;1.23;;
14040;SDS011;7095;51.388;6.196;2023-04-03T10:55:31;2.57;;;1.23;;
14040;SDS011;7095;51.388;6.196;2023-04-03T10:58:04;4.03;;;1.23;;
14040;SDS011;7095;51.388;6.196;2023-04-03T11:00:35;1.50;;;1.00;;
14040;SDS011;7095;51.388;6.196;2023-04-03T11:03:12;3.70;;;1.50;;
14040;SDS011;7095;51.388;6.196;2023-04-03T11:05:45;11.43;;;2.33;;
14040;SDS011;7095;51.388;6.196;2023-04-03T11:08:19;4.17;;;1.13;;
14040;SDS011;7095;51.388;6.196;2023-04-03T11:10:55;8.47;;;1.40;;
14040;SDS011;7095;51.388;6.196;2023-04-03T11:13:27;3.07;;;1.33;;
14040;SDS011;7095;51.388;6.196;2023-04-03T11:16:01;3.73;;;0.97;;
14040;SDS011;7095;51.388;6.196;2023-04-03T11:18:35;5.20;;;1.10;;
14040;SDS011;7095;51.388;6.196;2023-04-03T11:21:10;1.93;;;1.37;;
14040;SDS011;7095;51.388;6.196;2023-04-03T11:23:42;2.63;;;1.30;;
14040;SDS011;7095;51.388;6.196;2023-04-03T11:26:16;3.17;;;1.43;;
14040;SDS011;7095;51.388;6.196;2023-04-03T11:28:52;0.97;;;0.80;;
14040;SDS011;7095;51.388;6.196;2023-04-03T11:31:38;6.63;;;1.57;;
14040;SDS011;7095;51.388;6.196;2023-04-03T11:34:23;3.67;;;1.27;;
14040;SDS011;7095;51.388;6.196;2023-04-03T11:37:01;5.10;;;1.47;;
14040;SDS011;7095;51.388;6.196;2023-04-03T11:39:38;3.13;;;1.07;;
14040;SDS011;7095;51.388;6.196;2023-04-03T11:42:16;7.33;;;1.70;;
14040;SDS011;7095;51.388;6.196;2023-04-03T11:44:51;3.90;;;1.50;;
14040;SDS011;7095;51.388;6.196;2023-04-03T11:47:44;2.33;;;1.13;;
14040;SDS011;7095;51.388;6.196;2023-04-03T11:59:15;1.80;;;1.30;;
14040;SDS011;7095;51.388;6.196;2023-04-03T12:01:51;7.00;;;1.63;;
14040;SDS011;7095;51.388;6.196;2023-04-03T12:04:22;5.63;;;1.57;;
14040;SDS011;7095;51.388;6.196;2023-04-03T12:06:58;6.80;;;2.00;;
14040;SDS011;7095;51.388;6.196;2023-04-03T12:09:31;1.43;;;1.03;;
14040;SDS011;7095;51.388;6.196;2023-04-03T12:14:52;3.50;;;1.30;;
14040;SDS011;7095;51.388;6.196;2023-04-03T12:17:22;2.50;;;1.30;;
14040;SDS011;7095;51.388;6.196;2023-04-03T12:19:56;6.67;;;2.07;;
14040;SDS011;7095;51.388;6.196;2023-04-03T12:22:26;4.70;;;1.97;;
14040;SDS011;7095;51.388;6.196;2023-04-03T12:24:55;5.03;;;1.70;;
14040;SDS011;7095;51.388;6.196;2023-04-03T12:27:27;4.63;;;1.80;;
14040;SDS011;7095;51.388;6.196;2023-04-03T12:30:16;3.63;;;1.80;;
14040;SDS011;7095;51.388;6.196;2023-04-03T12:32:55;8.47;;;2.67;;
14040;SDS011;7095;51.388;6.196;2023-04-03T12:35:43;2.73;;;1.63;;
14040;SDS011;7095;51.388;6.196;2023-04-03T12:41:25;4.50;;;1.93;;
14040;SDS011;7095;51.388;6.196;2023-04-03T12:44:04;4.20;;;1.97;;
14040;SDS011;7095;51.388;6.196;2023-04-03T12:46:42;3.90;;;1.97;;
14040;SDS011;7095;51.388;6.196;2023-04-03T12:49:17;6.17;;;1.70;;
14040;SDS011;7095;51.388;6.196;2023-04-03T12:51:54;4.60;;;1.70;;
14040;SDS011;7095;51.388;6.196;2023-04-03T12:54:26;4.23;;;1.77;;
14040;SDS011;7095;51.388;6.196;2023-04-03T12:57:15;2.87;;;1.80;;
14040;SDS011;7095;51.388;6.196;2023-04-03T12:59:46;2.83;;;1.90;;
14040;SDS011;7095;51.388;6.196;2023-04-03T13:02:19;2.67;;;1.80;;
14040;SDS011;7095;51.388;6.196;2023-04-03T13:04:51;4.17;;;1.87;;
14040;SDS011;7095;51.388;6.196;2023-04-03T13:07:22;5.77;;;2.53;;
14040;SDS011;7095;51.388;6.196;2023-04-03T13:09:56;5.03;;;2.53;;
14040;SDS011;7095;51.388;6.196;2023-04-03T13:12:30;2.10;;;1.80;;
14040;SDS011;7095;51.388;6.196;2023-04-03T13:14:59;5.37;;;2.03;;
14040;SDS011;7095;51.388;6.196;2023-04-03T13:17:31;4.33;;;2.17;;
14040;SDS011;7095;51.388;6.196;2023-04-03T13:20:12;3.10;;;1.80;;
14040;SDS011;7095;51.388;6.196;2023-04-03T13:22:45;2.10;;;1.80;;
14040;SDS011;7095;51.388;6.196;2023-04-03T13:25:17;4.80;;;2.13;;
14040;SDS011;7095;51.388;6.196;2023-04-03T13:27:50;4.17;;;1.73;;
14040;SDS011;7095;51.388;6.196;2023-04-03T13:30:37;4.43;;;1.70;;
14040;SDS011;7095;51.388;6.196;2023-04-03T13:33:19;4.60;;;2.37;;
14040;SDS011;7095;51.388;6.196;2023-04-03T13:35:54;4.07;;;1.83;;
14040;SDS011;7095;51.388;6.196;2023-04-03T13:38:25;5.93;;;2.60;;
14040;SDS011;7095;51.388;6.196;2023-04-03T13:40:59;3.20;;;1.90;;
14040;SDS011;7095;51.388;6.196;2023-04-03T13:43:31;5.03;;;1.90;;
14040;SDS011;7095;51.388;6.196;2023-04-03T13:46:04;3.87;;;2.10;;
14040;SDS011;7095;51.388;6.196;2023-04-03T13:48:50;6.90;;;1.93;;
14040;SDS011;7095;51.388;6.196;2023-04-03T13:51:21;5.23;;;2.30;;
14040;SDS011;7095;51.388;6.196;2023-04-03T13:53:53;3.57;;;2.00;;
14040;SDS011;7095;51.388;6.196;2023-04-03T13:56:26;2.47;;;1.57;;
14040;SDS011;7095;51.388;6.196;2023-04-03T13:59:02;3.43;;;1.53;;
14040;SDS011;7095;51.388;6.196;2023-04-03T14:01:36;3.87;;;1.50;;
14040;SDS011;7095;51.388;6.196;2023-04-03T14:04:13;6.40;;;2.33;;
14040;SDS011;7095;51.388;6.196;2023-04-03T14:06:44;2.30;;;1.77;;
14040;SDS011;7095;51.388;6.196;2023-04-03T14:09:14;3.07;;;2.07;;
14040;SDS011;7095;51.388;6.196;2023-04-03T14:11:43;4.37;;;2.07;;
14040;SDS011;7095;51.388;6.196;2023-04-03T14:14:15;4.40;;;1.83;;
14040;SDS011;7095;51.388;6.196;2023-04-03T14:16:47;3.00;;;1.70;;
14040;SDS011;7095;51.388;6.196;2023-04-03T14:19:22;6.10;;;2.20;;
14040;SDS011;7095;51.388;6.196;2023-04-03T14:21:52;8.17;;;2.13;;
14040;SDS011;7095;51.388;6.196;2023-04-03T14:24:22;3.07;;;1.90;;
14040;SDS011;7095;51.388;6.196;2023-04-03T14:26:54;4.33;;;1.90;;
14040;SDS011;7095;51.388;6.196;2023-04-03T14:29:24;3.63;;;1.77;;
14040;SDS011;7095;51.388;6.196;2023-04-03T14:31:53;2.93;;;1.37;;
14040;SDS011;7095;51.388;6.196;2023-04-03T14:34:39;2.60;;;1.73;;
14040;SDS011;7095;51.388;6.196;2023-04-03T14:37:09;1.67;;;1.30;;
14040;SDS011;7095;51.388;6.196;2023-04-03T14:39:40;4.97;;;2.07;;
14040;SDS011;7095;51.388;6.196;2023-04-03T14:42:11;5.30;;;2.00;;
14040;SDS011;7095;51.388;6.196;2023-04-03T14:44:42;4.40;;;1.83;;
14040;SDS011;7095;51.388;6.196;2023-04-03T14:47:12;6.30;;;2.70;;
14040;SDS011;7095;51.388;6.196;2023-04-03T14:49:57;2.80;;;1.60;;
14040;SDS011;7095;51.388;6.196;2023-04-03T14:52:27;5.00;;;1.97;;
14040;SDS011;7095;51.388;6.196;2023-04-03T14:54:58;3.07;;;1.40;;
14040;SDS011;7095;51.388;6.196;2023-04-03T14:57:30;3.43;;;1.73;;
14040;SDS011;7095;51.388;6.196;2023-04-03T15:00:02;3.33;;;1.73;;
14040;SDS011;7095;51.388;6.196;2023-04-03T15:02:32;5.67;;;1.80;;
14040;SDS011;7095;51.388;6.196;2023-04-03T15:05:03;3.87;;;1.80;;
14040;SDS011;7095;51.388;6.196;2023-04-03T15:07:34;4.87;;;1.93;;
14040;SDS011;7095;51.388;6.196;2023-04-03T15:10:13;4.77;;;1.90;;
14040;SDS011;7095;51.388;6.196;2023-04-03T15:12:45;3.00;;;1.53;;
14040;SDS011;7095;51.388;6.196;2023-04-03T15:15:17;5.37;;;1.83;;
14040;SDS011;7095;51.388;6.196;2023-04-03T15:17:48;5.10;;;2.03;;
14040;SDS011;7095;51.388;6.196;2023-04-03T15:20:21;4.50;;;2.07;;
14040;SDS011;7095;51.388;6.196;2023-04-03T15:22:51;4.30;;;2.07;;
14040;SDS011;7095;51.388;6.196;2023-04-03T15:25:20;3.33;;;1.60;;
14040;SDS011;7095;51.388;6.196;2023-04-03T15:27:48;4.40;;;1.77;;
14040;SDS011;7095;51.388;6.196;2023-04-03T15:30:18;3.67;;;1.80;;
14040;SDS011;7095;51.388;6.196;2023-04-03T15:32:48;3.60;;;1.73;;
14040;SDS011;7095;51.388;6.196;2023-04-03T15:35:16;3.57;;;1.57;;
14040;SDS011;7095;51.388;6.196;2023-04-03T15:37:45;4.33;;;1.23;;
14040;SDS011;7095;51.388;6.196;2023-04-03T15:40:14;3.47;;;1.37;;
14040;SDS011;7095;51.388;6.196;2023-04-03T15:42:43;7.00;;;2.03;;